sensor_id;sensor_type;location;lat;lon;timestamp;pressure;altitude;pressure_sealevel;temperature;humidity
59650;BME280;46162;57.568;25.814;2023-12-29T00:00:41;99336.72;;;0.19;100.00
59650;BME280;46162;57.568;25.814;2023-12-29T00:03:10;99331.44;;;0.31;100.00
59650;BME280;46162;57.568;25.814;2023-12-29T00:05:38;99335.41;;;0.36;100.00
59650;BME280;46162;57.568;25.814;2023-12-29T00:08:09;99338.41;;;0.32;100.00
59650;BME280;46162;57.568;25.814;2023-12-29T00:10:37;99335.16;;;0.28;100.00
59650;BME280;46162;57.568;25.814;2023-12-29T00:13:06;99334.69;;;0.34;100.00
59650;BME280;46162;57.568;25.814;2023-12-29T00:15:34;99344.94;;;0.28;100.00
59650;BME280;46162;57.568;25.814;2023-12-29T00:18:03;99341.31;;;0.29;100.00
59650;BME280;46162;57.568;25.814;2023-12-29T00:20:33;99345.41;;;0.21;100.00
59650;BME280;46162;57.568;25.814;2023-12-29T00:23:09;99341.91;;;0.21;100.00
59650;BME280;46162;57.568;25.814;2023-12-29T00:25:38;99352.28;;;0.24;100.00
59650;BME280;46162;57.568;25.814;2023-12-29T00:28:07;99348.78;;;0.24;100.00
59650;BME280;46162;57.568;25.814;2023-12-29T00:30:38;99342.75;;;0.21;100.00
59650;BME280;46162;57.568;25.814;2023-12-29T00:33:26;99350.25;;;0.28;100.00
59650;BME280;46162;57.568;25.814;2023-12-29T00:35:55;99343.38;;;0.25;100.00
59650;BME280;46162;57.568;25.814;2023-12-29T00:38:26;99346.50;;;0.19;100.00
59650;BME280;46162;57.568;25.814;2023-12-29T00:40:55;99344.09;;;0.16;100.00
59650;BME280;46162;57.568;25.814;2023-12-29T00:43:24;99343.50;;;0.24;100.00
59650;BME280;46162;57.568;25.814;2023-12-29T00:45:53;99342.91;;;0.20;100.00
59650;BME280;46162;57.568;25.814;2023-12-29T00:48:21;99345.41;;;0.21;100.00
59650;BME280;46162;57.568;25.814;2023-12-29T00:50:50;99344.47;;;0.23;100.00
59650;BME280;46162;57.568;25.814;2023-12-29T00:53:19;99346.25;;;0.22;100.00
59650;BME280;46162;57.568;25.814;2023-12-29T00:55:49;99347.22;;;0.21;100.00
59650;BME280;46162;57.568;25.814;2023-12-29T00:58:17;99340.47;;;0.17;100.00
59650;BME280;46162;57.568;25.814;2023-12-29T01:00:46;99343.25;;;0.27;100.00
59650;BME280;46162;57.568;25.814;2023-12-29T01:03:15;99348.06;;;0.21;100.00
59650;BME280;46162;57.568;25.814;2023-12-29T01:05:43;99345.16;;;0.25;100.00
59650;BME280;46162;57.568;25.814;2023-12-29T01:08:13;99343.97;;;0.29;100.00
59650;BME280;46162;57.568;25.814;2023-12-29T01:10:41;99341.66;;;0.24;100.00
59650;BME280;46162;57.568;25.814;2023-12-29T01:13:11;99345.31;;;0.23;100.00
59650;BME280;46162;57.568;25.814;2023-12-29T01:15:40;99345.91;;;0.27;100.00
59650;BME280;46162;57.568;25.814;2023-12-29T01:18:12;99348.09;;;0.33;100.00
59650;BME280;46162;57.568;25.814;2023-12-29T01:20:42;99351.84;;;0.30;100.00
59650;BME280;46162;57.568;25.814;2023-12-29T01:23:11;99356.78;;;0.35;100.00
59650;BME280;46162;57.568;25.814;2023-12-29T01:25:39;99344.47;;;0.34;100.00
59650;BME280;46162;57.568;25.814;2023-12-29T01:28:09;99349.31;;;0.40;100.00
59650;BME280;46162;57.568;25.814;2023-12-29T01:30:39;99347.97;;;0.46;100.00
59650;BME280;46162;57.568;25.814;2023-12-29T01:33:07;99346.66;;;0.62;100.00
59650;BME280;46162;57.568;25.814;2023-12-29T01:35:38;99346.66;;;0.62;100.00
59650;BME280;46162;57.568;25.814;2023-12-29T01:38:07;99357.84;;;0.66;100.00
59650;BME280;46162;57.568;25.814;2023-12-29T01:40:42;99358.56;;;0.57;100.00
59650;BME280;46162;57.568;25.814;2023-12-29T01:43:12;99353.78;;;0.62;100.00
59650;BME280;46162;57.568;25.814;2023-12-29T01:45:43;99359.81;;;0.53;100.00
59650;BME280;46162;57.568;25.814;2023-12-29T01:48:24;99355.44;;;0.63;100.00
59650;BME280;46162;57.568;25.814;2023-12-29T01:50:54;99359.94;;;0.62;100.00
59650;BME280;46162;57.568;25.814;2023-12-29T01:53:24;99364.50;;;0.49;100.00
59650;BME280;46162;57.568;25.814;2023-12-29T01:56:09;99354.25;;;0.56;100.00
59650;BME280;46162;57.568;25.814;2023-12-29T01:58:38;99353.19;;;0.47;100.00
59650;BME280;46162;57.568;25.814;2023-12-29T02:01:08;99351.47;;;0.57;100.00
59650;BME280;46162;57.568;25.814;2023-12-29T02:03:37;99356.41;;;0.51;100.00
59650;BME280;46162;57.568;25.814;2023-12-29T02:06:06;99351.47;;;0.57;100.00
59650;BME280;46162;57.568;25.814;2023-12-29T02:08:37;99356.53;;;0.60;100.00
59650;BME280;46162;57.568;25.814;2023-12-29T02:11:05;99349.66;;;0.58;100.00
59650;BME280;46162;57.568;25.814;2023-12-29T02:13:35;99355.34;;;0.53;100.00
59650;BME280;46162;57.568;25.814;2023-12-29T02:16:09;99356.41;;;0.51;100.00
59650;BME280;46162;57.568;25.814;2023-12-29T02:18:42;99353.66;;;0.52;100.00
59650;BME280;46162;57.568;25.814;2023-12-29T02:21:13;99359.44;;;0.46;100.00
59650;BME280;46162;57.568;25.814;2023-12-29T02:23:42;99355.22;;;0.43;100.00
59650;BME280;46162;57.568;25.814;2023-12-29T02:26:15;99355.06;;;0.34;100.00
59650;BME280;46162;57.568;25.814;2023-12-29T02:28:50;99364.84;;;0.33;100.00
59650;BME280;46162;57.568;25.814;2023-12-29T02:31:24;99371.13;;;0.43;100.00
59650;BME280;46162;57.568;25.814;2023-12-29T02:33:56;99369.81;;;0.38;100.00
59650;BME280;46162;57.568;25.814;2023-12-29T02:36:26;99371.97;;;0.44;100.00
59650;BME280;46162;57.568;25.814;2023-12-29T02:38:55;99373.66;;;0.34;100.00
59650;BME280;46162;57.568;25.814;2023-12-29T02:41:25;99376.19;;;0.47;100.00
59650;BME280;46162;57.568;25.814;2023-12-29T02:43:54;99377.91;;;0.48;100.00
59650;BME280;46162;57.568;25.814;2023-12-29T02:46:22;99388.78;;;0.67;100.00
59650;BME280;46162;57.568;25.814;2023-12-29T02:48:51;99393.97;;;0.57;100.00
59650;BME280;46162;57.568;25.814;2023-12-29T02:51:21;99391.31;;;0.57;100.00
59650;BME280;46162;57.568;25.814;2023-12-29T02:53:49;99400.72;;;0.73;100.00
59650;BME280;46162;57.568;25.814;2023-12-29T02:56:18;99397.00;;;0.75;100.00
59650;BME280;46162;57.568;25.814;2023-12-29T02:58:49;99402.19;;;0.77;100.00
59650;BME280;46162;57.568;25.814;2023-12-29T03:01:18;99399.53;;;0.77;100.00
59650;BME280;46162;57.568;25.814;2023-12-29T03:03:47;99398.81;;;0.75;100.00
59650;BME280;46162;57.568;25.814;2023-12-29T03:06:16;99394.78;;;0.69;100.00
59650;BME280;46162;57.568;25.814;2023-12-29T03:08:45;99401.22;;;0.55;100.00
59650;BME280;46162;57.568;25.814;2023-12-29T03:11:14;99409.03;;;0.57;100.00
59650;BME280;46162;57.568;25.814;2023-12-29T03:13:42;99408.56;;;0.63;100.00
59650;BME280;46162;57.568;25.814;2023-12-29T03:16:13;99404.59;;;0.57;100.00
59650;BME280;46162;57.568;25.814;2023-12-29T03:18:42;99411.59;;;0.58;100.00
59650;BME280;46162;57.568;25.814;2023-12-29T03:21:11;99408.44;;;0.53;100.00
59650;BME280;46162;57.568;25.814;2023-12-29T03:23:39;99418.13;;;0.66;100.00
59650;BME280;46162;57.568;25.814;2023-12-29T03:26:08;99419.81;;;0.55;100.00
59650;BME280;46162;57.568;25.814;2023-12-29T03:28:37;99418.47;;;0.61;100.00
59650;BME280;46162;57.568;25.814;2023-12-29T03:31:05;99415.72;;;0.62;100.00
59650;BME280;46162;57.568;25.814;2023-12-29T03:33:36;99421.75;;;0.76;100.00
59650;BME280;46162;57.568;25.814;2023-12-29T03:36:04;99422.22;;;0.81;100.00
59650;BME280;46162;57.568;25.814;2023-12-29T03:38:36;99426.94;;;0.77;100.00
59650;BME280;46162;57.568;25.814;2023-12-29T03:41:05;99424.13;;;0.56;100.00
59650;BME280;46162;57.568;25.814;2023-12-29T03:43:33;99428.00;;;0.52;100.00
59650;BME280;46162;57.568;25.814;2023-12-29T03:46:02;99429.94;;;0.50;100.00
59650;BME280;46162;57.568;25.814;2023-12-29T03:48:31;99423.31;;;0.45;100.00
59650;BME280;46162;57.568;25.814;2023-12-29T03:51:01;99430.75;;;0.39;100.00
59650;BME280;46162;57.568;25.814;2023-12-29T03:53:30;99424.50;;;0.40;100.00
59650;BME280;46162;57.568;25.814;2023-12-29T03:55:59;99423.75;;;0.38;100.00
59650;BME280;46162;57.568;25.814;2023-12-29T03:58:27;99422.06;;;0.37;100.00
59650;BME280;46162;57.568;25.814;2023-12-29T04:00:56;99428.22;;;0.38;100.00
59650;BME280;46162;57.568;25.814;2023-12-29T04:03:25;99424.09;;;0.34;100.00
59650;BME280;46162;57.568;25.814;2023-12-29T04:05:54;99418.94;;;0.32;100.00
59650;BME280;46162;57.568;25.814;2023-12-29T04:08:24;99426.53;;;0.37;100.00
59650;BME280;46162;57.568;25.814;2023-12-29T04:10:53;99423.03;;;0.36;100.00
59650;BME280;46162;57.568;25.814;2023-12-29T04:13:22;99433.03;;;0.33;100.00
59650;BME280;46162;57.568;25.814;2023-12-29T04:15:51;99431.22;;;0.33;100.00
59650;BME280;46162;57.568;25.814;2023-12-29T04:18:21;99427.50;;;0.36;100.00
59650;BME280;46162;57.568;25.814;2023-12-29T04:20:50;99426.16;;;0.30;100.00
59650;BME280;46162;57.568;25.814;2023-12-29T04:23:19;99429.91;;;0.28;100.00
59650;BME280;46162;57.568;25.814;2023-12-29T04:25:49;99427.59;;;0.23;100.00
59650;BME280;46162;57.568;25.814;2023-12-29T04:28:18;99429.28;;;0.24;100.00
59650;BME280;46162;57.568;25.814;2023-12-29T04:30:47;99424.81;;;0.25;100.00
59650;BME280;46162;57.568;25.814;2023-12-29T04:33:16;99425.03;;;0.21;100.00
59650;BME280;46162;57.568;25.814;2023-12-29T04:35:45;99428.31;;;0.25;100.00
59650;BME280;46162;57.568;25.814;2023-12-29T04:38:15;99425.91;;;0.33;100.00
59650;BME280;46162;57.568;25.814;2023-12-29T04:40:46;99427.59;;;0.34;100.00
59650;BME280;46162;57.568;25.814;2023-12-29T04:43:17;99427.72;;;0.33;100.00
59650;BME280;46162;57.568;25.814;2023-12-29T04:45:46;99431.97;;;0.35;100.00
59650;BME280;46162;57.568;25.814;2023-12-29T04:48:15;99420.25;;;0.38;100.00
59650;BME280;46162;57.568;25.814;2023-12-29T04:50:44;99426.91;;;0.43;100.00
59650;BME280;46162;57.568;25.814;2023-12-29T04:53:13;99421.00;;;0.40;100.00
59650;BME280;46162;57.568;25.814;2023-12-29T04:55:42;99406.97;;;0.38;100.00
59650;BME280;46162;57.568;25.814;2023-12-29T04:58:10;99416.03;;;0.35;100.00
59650;BME280;46162;57.568;25.814;2023-12-29T05:00:41;99414.56;;;0.31;100.00
59650;BME280;46162;57.568;25.814;2023-12-29T05:03:10;99416.63;;;0.28;100.00
59650;BME280;46162;57.568;25.814;2023-12-29T05:05:39;99421.78;;;0.29;100.00
59650;BME280;46162;57.568;25.814;2023-12-29T05:08:08;99427.97;;;0.30;100.00
59650;BME280;46162;57.568;25.814;2023-12-29T05:10:36;99421.94;;;0.39;100.00
59650;BME280;46162;57.568;25.814;2023-12-29T05:13:05;99427.25;;;0.39;100.00
59650;BME280;46162;57.568;25.814;2023-12-29T05:15:34;99421.34;;;0.47;100.00
59650;BME280;46162;57.568;25.814;2023-12-29T05:18:03;99419.56;;;0.47;100.00
59650;BME280;46162;57.568;25.814;2023-12-29T05:20:33;99412.09;;;0.52;100.00
59650;BME280;46162;57.568;25.814;2023-12-29T05:23:02;99420.88;;;0.53;100.00
59650;BME280;46162;57.568;25.814;2023-12-29T05:25:31;99425.56;;;0.49;100.00
59650;BME280;46162;57.568;25.814;2023-12-29T05:27:59;99426.56;;;0.48;100.00
59650;BME280;46162;57.568;25.814;2023-12-29T05:30:28;99436.34;;;0.48;100.00
59650;BME280;46162;57.568;25.814;2023-12-29T05:32:59;99438.75;;;0.51;100.00
59650;BME280;46162;57.568;25.814;2023-12-29T05:35:29;99430.88;;;0.49;100.00
59650;BME280;46162;57.568;25.814;2023-12-29T05:37:58;99434.50;;;0.48;100.00
59650;BME280;46162;57.568;25.814;2023-12-29T05:40:30;99438.84;;;0.49;100.00
59650;BME280;46162;57.568;25.814;2023-12-29T05:42:59;99437.41;;;0.45;100.00
59650;BME280;46162;57.568;25.814;2023-12-29T05:45:29;99438.84;;;0.49;100.00
59650;BME280;46162;57.568;25.814;2023-12-29T05:47:58;99428.22;;;0.49;100.00
59650;BME280;46162;57.568;25.814;2023-12-29T05:50:28;99430.78;;;0.51;100.00
59650;BME280;46162;57.568;25.814;2023-12-29T05:52:57;99426.31;;;0.51;100.00
59650;BME280;46162;57.568;25.814;2023-12-29T05:55:26;99422.47;;;0.55;100.00
59650;BME280;46162;57.568;25.814;2023-12-29T05:57:55;99420.03;;;0.52;100.00
59650;BME280;46162;57.568;25.814;2023-12-29T06:00:24;99419.06;;;0.53;100.00
59650;BME280;46162;57.568;25.814;2023-12-29T06:02:52;99422.56;;;0.54;100.00
59650;BME280;46162;57.568;25.814;2023-12-29T06:05:22;99409.91;;;0.57;100.00
59650;BME280;46162;57.568;25.814;2023-12-29T06:07:52;99408.44;;;0.53;100.00
59650;BME280;46162;57.568;25.814;2023-12-29T06:10:21;99413.03;;;0.51;100.00
59650;BME280;46162;57.568;25.814;2023-12-29T06:12:51;99413.66;;;0.55;100.00
59650;BME280;46162;57.568;25.814;2023-12-29T06:15:21;99403.13;;;0.53;100.00
59650;BME280;46162;57.568;25.814;2023-12-29T06:17:49;99406.75;;;0.52;100.00
59650;BME280;46162;57.568;25.814;2023-12-29T06:20:18;99413.28;;;0.48;100.00
59650;BME280;46162;57.568;25.814;2023-12-29T06:22:47;99408.69;;;0.50;100.00
59650;BME280;46162;57.568;25.814;2023-12-29T06:25:18;99417.38;;;0.52;100.00
59650;BME280;46162;57.568;25.814;2023-12-29T06:27:47;99414.00;;;0.50;100.00
59650;BME280;46162;57.568;25.814;2023-12-29T06:30:16;99409.78;;;0.48;100.00
59650;BME280;46162;57.568;25.814;2023-12-29T06:32:45;99406.38;;;0.46;100.00
59650;BME280;46162;57.568;25.814;2023-12-29T06:35:13;99407.97;;;0.48;100.00
59650;BME280;46162;57.568;25.814;2023-12-29T06:37:41;99406.88;;;0.51;100.00
59650;BME280;46162;57.568;25.814;2023-12-29T06:40:10;99414.75;;;0.52;100.00
59650;BME280;46162;57.568;25.814;2023-12-29T06:42:41;99415.69;;;0.51;100.00
59650;BME280;46162;57.568;25.814;2023-12-29T06:45:10;99413.50;;;0.56;100.00
59650;BME280;46162;57.568;25.814;2023-12-29T06:47:38;99412.19;;;0.51;100.00
59650;BME280;46162;57.568;25.814;2023-12-29T06:50:08;99410.38;;;0.51;100.00
59650;BME280;46162;57.568;25.814;2023-12-29T06:52:40;99408.06;;;0.47;100.00
59650;BME280;46162;57.568;25.814;2023-12-29T06:55:09;99409.63;;;0.49;100.00
59650;BME280;46162;57.568;25.814;2023-12-29T06:57:38;99412.91;;;0.53;100.00
59650;BME280;46162;57.568;25.814;2023-12-29T07:00:10;99406.75;;;0.52;100.00
59650;BME280;46162;57.568;25.814;2023-12-29T07:02:39;99404.13;;;0.52;100.00
59650;BME280;46162;57.568;25.814;2023-12-29T07:05:09;99396.25;;;0.51;100.00
59650;BME280;46162;57.568;25.814;2023-12-29T07:07:38;99394.19;;;0.54;100.00
59650;BME280;46162;57.568;25.814;2023-12-29T07:10:08;99395.16;;;0.53;100.00
59650;BME280;46162;57.568;25.814;2023-12-29T07:12:41;99394.19;;;0.54;100.00
59650;BME280;46162;57.568;25.814;2023-12-29T07:15:11;99386.75;;;0.59;100.00
59650;BME280;46162;57.568;25.814;2023-12-29T07:17:41;99393.00;;;0.58;100.00
59650;BME280;46162;57.568;25.814;2023-12-29T07:20:11;99390.09;;;0.61;100.00
59650;BME280;46162;57.568;25.814;2023-12-29T07:22:40;99384.78;;;0.61;100.00
59650;BME280;46162;57.568;25.814;2023-12-29T07:25:09;99373.06;;;0.64;100.00
59650;BME280;46162;57.568;25.814;2023-12-29T07:27:38;99376.69;;;0.63;100.00
59650;BME280;46162;57.568;25.814;2023-12-29T07:30:08;99359.31;;;0.70;100.00
59650;BME280;46162;57.568;25.814;2023-12-29T07:32:39;99361.34;;;0.67;100.00
59650;BME280;46162;57.568;25.814;2023-12-29T07:35:08;99353.16;;;0.70;100.00
59650;BME280;46162;57.568;25.814;2023-12-29T07:37:38;99353.16;;;0.70;100.00
59650;BME280;46162;57.568;25.814;2023-12-29T07:40:08;99354.84;;;0.71;100.00
59650;BME280;46162;57.568;25.814;2023-12-29T07:42:39;99346.88;;;0.71;100.00
59650;BME280;46162;57.568;25.814;2023-12-29T07:45:08;99341.44;;;0.72;100.00
59650;BME280;46162;57.568;25.814;2023-12-29T07:47:39;99346.41;;;0.77;100.00
59650;BME280;46162;57.568;25.814;2023-12-29T07:50:08;99338.53;;;0.75;100.00
59650;BME280;46162;57.568;25.814;2023-12-29T07:52:37;99346.00;;;0.81;100.00
59650;BME280;46162;57.568;25.814;2023-12-29T07:55:06;99339.75;;;0.82;100.00
59650;BME280;46162;57.568;25.814;2023-12-29T07:57:34;99336.72;;;0.87;100.00
59650;BME280;46162;57.568;25.814;2023-12-29T08:00:04;99331.16;;;0.90;100.00
59650;BME280;46162;57.568;25.814;2023-12-29T08:02:39;99325.13;;;0.88;100.00
59650;BME280;46162;57.568;25.814;2023-12-29T08:05:08;99329.94;;;0.94;100.00
59650;BME280;46162;57.568;25.814;2023-12-29T08:07:37;99332.47;;;0.96;100.00
59650;BME280;46162;57.568;25.814;2023-12-29T08:10:07;99328.97;;;0.95;100.00
59650;BME280;46162;57.568;25.814;2023-12-29T08:12:36;99330.41;;;0.99;100.00
59650;BME280;46162;57.568;25.814;2023-12-29T08:15:06;99325.44;;;1.06;100.00
59650;BME280;46162;57.568;25.814;2023-12-29T08:17:35;99322.19;;;1.02;100.00
59650;BME280;46162;57.568;25.814;2023-12-29T08:20:07;99322.44;;;0.99;100.00
59650;BME280;46162;57.568;25.814;2023-12-29T08:22:39;99313.50;;;1.00;100.00
59650;BME280;46162;57.568;25.814;2023-12-29T08:25:08;99310.56;;;1.03;100.00
59650;BME280;46162;57.568;25.814;2023-12-29T08:27:37;99309.38;;;1.07;100.00
59650;BME280;46162;57.568;25.814;2023-12-29T08:30:06;99306.34;;;1.12;100.00
59650;BME280;46162;57.568;25.814;2023-12-29T08:32:35;99313.78;;;1.18;100.00
59650;BME280;46162;57.568;25.814;2023-12-29T08:35:06;99316.34;;;1.20;100.00
59650;BME280;46162;57.568;25.814;2023-12-29T08:37:35;99309.66;;;1.25;100.00
59650;BME280;46162;57.568;25.814;2023-12-29T08:40:05;99314.88;;;1.27;100.00
59650;BME280;46162;57.568;25.814;2023-12-29T08:42:35;99307.72;;;1.27;100.00
59650;BME280;46162;57.568;25.814;2023-12-29T08:45:04;99308.00;;;1.24;100.00
59650;BME280;46162;57.568;25.814;2023-12-29T08:47:35;99300.84;;;1.25;100.00
59650;BME280;46162;57.568;25.814;2023-12-29T08:50:06;99300.81;;;1.36;100.00
59650;BME280;46162;57.568;25.814;2023-12-29T08:52:35;99307.09;;;1.35;100.00
59650;BME280;46162;57.568;25.814;2023-12-29T08:55:05;99311.47;;;1.36;100.00
59650;BME280;46162;57.568;25.814;2023-12-29T08:57:34;99299.84;;;1.37;100.00
59650;BME280;46162;57.568;25.814;2023-12-29T09:00:03;99299.91;;;1.47;100.00
59650;BME280;46162;57.568;25.814;2023-12-29T09:02:32;99296.41;;;1.46;100.00
59650;BME280;46162;57.568;25.814;2023-12-29T09:05:01;99293.75;;;1.46;100.00
59650;BME280;46162;57.568;25.814;2023-12-29T09:07:31;99289.41;;;1.45;100.00
59650;BME280;46162;57.568;25.814;2023-12-29T09:10:00;99287.19;;;1.50;100.00
59650;BME280;46162;57.568;25.814;2023-12-29T09:12:30;99286.88;;;1.44;100.00
59650;BME280;46162;57.568;25.814;2023-12-29T09:14:59;99285.00;;;1.56;100.00
59650;BME280;46162;57.568;25.814;2023-12-29T09:17:28;99288.53;;;1.56;100.00
59650;BME280;46162;57.568;25.814;2023-12-29T09:19:57;99288.97;;;1.61;100.00
59650;BME280;46162;57.568;25.814;2023-12-29T09:22:38;99281.38;;;1.57;100.00
59650;BME280;46162;57.568;25.814;2023-12-29T09:25:10;99279.88;;;1.64;100.00
59650;BME280;46162;57.568;25.814;2023-12-29T09:27:39;99274.38;;;1.77;100.00
59650;BME280;46162;57.568;25.814;2023-12-29T09:30:08;99271.81;;;1.75;100.00
59650;BME280;46162;57.568;25.814;2023-12-29T09:32:37;99264.09;;;1.72;100.00
59650;BME280;46162;57.568;25.814;2023-12-29T09:35:06;99265.28;;;1.79;100.00
59650;BME280;46162;57.568;25.814;2023-12-29T09:37:35;99253.78;;;1.79;100.00
59650;BME280;46162;57.568;25.814;2023-12-29T09:40:07;99256.84;;;1.74;100.00
59650;BME280;46162;57.568;25.814;2023-12-29T09:42:37;99252.09;;;1.78;100.00
59650;BME280;46162;57.568;25.814;2023-12-29T09:45:10;99248.31;;;1.80;100.00
59650;BME280;46162;57.568;25.814;2023-12-29T09:47:40;99244.56;;;1.83;100.00
59650;BME280;46162;57.568;25.814;2023-12-29T09:50:10;99240.09;;;1.83;100.00
59650;BME280;46162;57.568;25.814;2023-12-29T09:52:40;99233.63;;;1.76;100.00
59650;BME280;46162;57.568;25.814;2023-12-29T09:55:10;99230.81;;;1.78;100.00
59650;BME280;46162;57.568;25.814;2023-12-29T09:57:39;99227.75;;;1.82;100.00
59650;BME280;46162;57.568;25.814;2023-12-29T10:00:11;99225.09;;;1.82;100.00
59650;BME280;46162;57.568;25.814;2023-12-29T10:02:40;99212.06;;;1.79;100.00
59650;BME280;46162;57.568;25.814;2023-12-29T10:05:09;99207.91;;;1.86;100.00
59650;BME280;46162;57.568;25.814;2023-12-29T10:07:39;99211.13;;;1.90;100.00
59650;BME280;46162;57.568;25.814;2023-12-29T10:10:15;99210.28;;;1.89;100.00
59650;BME280;46162;57.568;25.814;2023-12-29T10:12:47;99208.22;;;1.93;100.00
59650;BME280;46162;57.568;25.814;2023-12-29T10:15:21;99208.78;;;1.97;100.00
59650;BME280;46162;57.568;25.814;2023-12-29T10:18:00;99201.50;;;1.99;100.00
59650;BME280;46162;57.568;25.814;2023-12-29T10:20:42;99198.84;;;1.99;100.00
59650;BME280;46162;57.568;25.814;2023-12-29T10:23:17;99198.44;;;2.03;100.00
59650;BME280;46162;57.568;25.814;2023-12-29T10:25:49;99193.41;;;2.10;100.00
59650;BME280;46162;57.568;25.814;2023-12-29T10:28:19;99192.00;;;2.06;100.00
59650;BME280;46162;57.568;25.814;2023-12-29T10:30:48;99188.63;;;2.04;100.00
59650;BME280;46162;57.568;25.814;2023-12-29T10:33:19;99195.63;;;2.05;100.00
59650;BME280;46162;57.568;25.814;2023-12-29T10:35:58;99193.41;;;2.10;100.00
59650;BME280;46162;57.568;25.814;2023-12-29T10:38:30;99186.13;;;2.12;100.00
59650;BME280;46162;57.568;25.814;2023-12-29T10:41:15;99182.53;;;2.13;100.00
59650;BME280;46162;57.568;25.814;2023-12-29T10:43:45;99177.31;;;2.11;100.00
59650;BME280;46162;57.568;25.814;2023-12-29T10:46:19;99180.53;;;2.15;100.00
59650;BME280;46162;57.568;25.814;2023-12-29T10:48:48;99175.53;;;2.22;100.00
59650;BME280;46162;57.568;25.814;2023-12-29T10:51:26;99177.22;;;2.23;100.00
59650;BME280;46162;57.568;25.814;2023-12-29T10:53:56;99175.13;;;2.26;100.00
59650;BME280;46162;57.568;25.814;2023-12-29T10:56:26;99175.81;;;2.19;100.00
59650;BME280;46162;57.568;25.814;2023-12-29T10:59:00;99170.78;;;2.25;100.00
59650;BME280;46162;57.568;25.814;2023-12-29T11:01:34;99177.50;;;2.29;100.00
59650;BME280;46162;57.568;25.814;2023-12-29T11:04:04;99177.66;;;2.28;100.00
59650;BME280;46162;57.568;25.814;2023-12-29T11:06:40;99179.75;;;2.34;100.00
59650;BME280;46162;57.568;25.814;2023-12-29T11:09:11;99176.97;;;2.35;100.00
59650;BME280;46162;57.568;25.814;2023-12-29T11:11:42;99167.44;;;2.33;100.00
59650;BME280;46162;57.568;25.814;2023-12-29T11:14:14;99166.03;;;2.39;100.00
59650;BME280;46162;57.568;25.814;2023-12-29T11:16:43;99164.63;;;2.34;100.00
59650;BME280;46162;57.568;25.814;2023-12-29T11:19:12;99162.94;;;2.33;100.00
59650;BME280;46162;57.568;25.814;2023-12-29T11:21:42;99164.63;;;2.34;100.00
59650;BME280;46162;57.568;25.814;2023-12-29T11:24:12;99161.00;;;2.35;100.00
59650;BME280;46162;57.568;25.814;2023-12-29T11:26:52;99158.75;;;2.31;100.00
59650;BME280;46162;57.568;25.814;2023-12-29T11:29:21;99158.75;;;2.41;100.00
59650;BME280;46162;57.568;25.814;2023-12-29T11:31:52;99162.50;;;2.28;100.00
59650;BME280;46162;57.568;25.814;2023-12-29T11:34:26;99164.88;;;2.22;100.00
59650;BME280;46162;57.568;25.814;2023-12-29T11:37:09;99148.63;;;2.25;100.00
59650;BME280;46162;57.568;25.814;2023-12-29T11:39:48;99153.09;;;2.24;100.00
59650;BME280;46162;57.568;25.814;2023-12-29T11:42:26;99152.97;;;2.26;100.00
59650;BME280;46162;57.568;25.814;2023-12-29T11:44:57;99151.72;;;2.20;100.00
59650;BME280;46162;57.568;25.814;2023-12-29T11:47:34;99150.41;;;2.14;100.00
59650;BME280;46162;57.568;25.814;2023-12-29T11:50:04;99149.03;;;2.10;100.00
59650;BME280;46162;57.568;25.814;2023-12-29T11:52:33;99152.25;;;2.14;100.00
59650;BME280;46162;57.568;25.814;2023-12-29T11:55:08;99152.53;;;2.11;100.00
59650;BME280;46162;57.568;25.814;2023-12-29T11:57:38;99144.66;;;2.09;100.00
59650;BME280;46162;57.568;25.814;2023-12-29T12:00:09;99151.53;;;2.12;100.00
59650;BME280;46162;57.568;25.814;2023-12-29T12:02:38;99146.19;;;2.12;100.00
59650;BME280;46162;57.568;25.814;2023-12-29T12:05:09;99147.34;;;2.19;100.00
59650;BME280;46162;57.568;25.814;2023-12-29T12:07:58;99140.34;;;2.18;100.00
59650;BME280;46162;57.568;25.814;2023-12-29T12:10:32;99137.09;;;2.14;100.00
59650;BME280;46162;57.568;25.814;2023-12-29T12:13:03;99136.81;;;2.18;100.00
59650;BME280;46162;57.568;25.814;2023-12-29T12:15:33;99132.09;;;2.21;100.00
59650;BME280;46162;57.568;25.814;2023-12-29T12:18:03;99130.97;;;2.24;100.00
59650;BME280;46162;57.568;25.814;2023-12-29T12:20:35;99134.63;;;2.32;100.00
59650;BME280;46162;57.568;25.814;2023-12-29T12:23:10;99122.56;;;2.28;100.00
59650;BME280;46162;57.568;25.814;2023-12-29T12:25:45;99127.06;;;2.28;100.00
59650;BME280;46162;57.568;25.814;2023-12-29T12:28:15;99128.72;;;2.29;100.00
59650;BME280;46162;57.568;25.814;2023-12-29T12:30:45;99123.84;;;2.34;100.00
59650;BME280;46162;57.568;25.814;2023-12-29T12:33:16;99121.16;;;2.34;100.00
59650;BME280;46162;57.568;25.814;2023-12-29T12:35:45;99118.63;;;2.32;100.00
59650;BME280;46162;57.568;25.814;2023-12-29T12:38:16;99119.63;;;2.31;100.00
59650;BME280;46162;57.568;25.814;2023-12-29T12:40:49;99112.22;;;2.35;100.00
59650;BME280;46162;57.568;25.814;2023-12-29T12:43:20;99115.00;;;2.33;100.00
59650;BME280;46162;57.568;25.814;2023-12-29T12:45:59;99108.84;;;2.33;100.00
59650;BME280;46162;57.568;25.814;2023-12-29T12:48:34;99110.09;;;2.29;100.00
59650;BME280;46162;57.568;25.814;2023-12-29T12:51:04;99101.97;;;2.30;100.00
59650;BME280;46162;57.568;25.814;2023-12-29T12:53:33;99104.63;;;2.30;100.00
59650;BME280;46162;57.568;25.814;2023-12-29T12:56:06;99094.94;;;2.29;100.00
59650;BME280;46162;57.568;25.814;2023-12-29T12:58:37;99097.06;;;2.26;100.00
59650;BME280;46162;57.568;25.814;2023-12-29T13:01:07;99098.72;;;2.27;100.00
59650;BME280;46162;57.568;25.814;2023-12-29T13:03:36;99087.25;;;2.26;100.00
59650;BME280;46162;57.568;25.814;2023-12-29T13:06:07;99094.94;;;2.29;100.00